sensor_id;sensor_type;location;lat;lon;timestamp;temperature;humidity
54946;DHT22;40846;44.788;20.486;2022-11-20T08:31:15;205.70;2252.80
54946;DHT22;40846;44.788;20.486;2022-11-20T08:33:41;205.40;2252.80
54946;DHT22;40846;44.788;20.486;2022-11-20T08:36:06;205.30;2252.80
54946;DHT22;40846;44.788;20.486;2022-11-20T08:38:33;205.30;2252.80
54946;DHT22;40846;44.788;20.486;2022-11-20T08:41:03;205.20;2252.80
54946;DHT22;40846;44.788;20.486;2022-11-20T08:43:47;205.10;2252.80
54946;DHT22;40846;44.788;20.486;2022-11-20T08:46:13;205.10;2252.80
54946;DHT22;40846;44.788;20.486;2022-11-20T08:48:39;205.10;2252.80
54946;DHT22;40846;44.788;20.486;2022-11-20T08:51:05;205.20;2252.80
54946;DHT22;40846;44.788;20.486;2022-11-20T08:53:31;205.40;2252.80
54946;DHT22;40846;44.788;20.486;2022-11-20T08:55:57;205.20;2252.80
54946;DHT22;40846;44.788;20.486;2022-11-20T08:58:24;205.20;2252.80
54946;DHT22;40846;44.788;20.486;2022-11-20T09:00:50;205.10;2252.80
54946;DHT22;40846;44.788;20.486;2022-11-20T09:03:16;205.20;2252.80
54946;DHT22;40846;44.788;20.486;2022-11-20T09:05:42;205.20;2252.80
54946;DHT22;40846;44.788;20.486;2022-11-20T09:08:08;205.30;2252.80
54946;DHT22;40846;44.788;20.486;2022-11-20T09:10:34;205.40;2252.80
54946;DHT22;40846;44.788;20.486;2022-11-20T09:13:00;205.30;2252.80
54946;DHT22;40846;44.788;20.486;2022-11-20T09:15:25;205.30;2252.80
54946;DHT22;40846;44.788;20.486;2022-11-20T09:17:53;205.40;2252.80
54946;DHT22;40846;44.788;20.486;2022-11-20T09:20:19;205.30;2252.80
54946;DHT22;40846;44.788;20.486;2022-11-20T09:22:45;205.40;2252.80
54946;DHT22;40846;44.788;20.486;2022-11-20T09:25:11;205.30;2252.80
54946;DHT22;40846;44.788;20.486;2022-11-20T09:27:37;205.40;2252.80
54946;DHT22;40846;44.788;20.486;2022-11-20T09:30:03;205.30;2252.80
54946;DHT22;40846;44.788;20.486;2022-11-20T09:32:29;205.40;2252.80
54946;DHT22;40846;44.788;20.486;2022-11-20T09:34:55;205.40;2252.80
54946;DHT22;40846;44.788;20.486;2022-11-20T09:37:20;205.20;2252.80
54946;DHT22;40846;44.788;20.486;2022-11-20T09:39:46;205.30;2252.80
54946;DHT22;40846;44.788;20.486;2022-11-20T09:45:16;205.20;2252.80
54946;DHT22;40846;44.788;20.486;2022-11-20T09:48:14;205.30;2252.80
54946;DHT22;40846;44.788;20.486;2022-11-20T09:55:50;205.60;2252.80
54946;DHT22;40846;44.788;20.486;2022-11-20T10:01:00;205.40;2252.80
54946;DHT22;40846;44.788;20.486;2022-11-20T10:06:13;205.40;2252.80
54946;DHT22;40846;44.788;20.486;2022-11-20T10:17:41;205.60;2252.80
54946;DHT22;40846;44.788;20.486;2022-11-20T10:26:02;205.50;2252.80
54946;DHT22;40846;44.788;20.486;2022-11-20T10:28:56;205.40;2252.80
54946;DHT22;40846;44.788;20.486;2022-11-20T10:31:41;205.30;2252.80
54946;DHT22;40846;44.788;20.486;2022-11-20T10:37:16;205.20;2252.80
54946;DHT22;40846;44.788;20.486;2022-11-20T10:42:22;205.00;2252.80
54946;DHT22;40846;44.788;20.486;2022-11-20T10:44:57;204.90;2252.80
54946;DHT22;40846;44.788;20.486;2022-11-20T10:47:28;205.00;2252.80
54946;DHT22;40846;44.788;20.486;2022-11-20T10:49:58;204.90;2252.80
54946;DHT22;40846;44.788;20.486;2022-11-20T10:55:38;205.10;2252.80
54946;DHT22;40846;44.788;20.486;2022-11-20T10:58:14;205.10;2252.80
54946;DHT22;40846;44.788;20.486;2022-11-20T11:00:42;205.30;2252.80
54946;DHT22;40846;44.788;20.486;2022-11-20T11:03:28;205.40;2252.80
54946;DHT22;40846;44.788;20.486;2022-11-20T11:09:09;205.40;2252.80
54946;DHT22;40846;44.788;20.486;2022-11-20T11:11:38;205.30;2252.80
54946;DHT22;40846;44.788;20.486;2022-11-20T11:14:09;205.20;2252.80
54946;DHT22;40846;44.788;20.486;2022-11-20T11:16:35;205.10;2252.80
54946;DHT22;40846;44.788;20.486;2022-11-20T11:19:12;205.10;2252.80
54946;DHT22;40846;44.788;20.486;2022-11-20T11:21:38;205.10;2252.80
54946;DHT22;40846;44.788;20.486;2022-11-20T11:24:23;205.10;2252.80
54946;DHT22;40846;44.788;20.486;2022-11-20T11:27:01;205.10;2252.80
54946;DHT22;40846;44.788;20.486;2022-11-20T11:29:32;205.10;2252.80
54946;DHT22;40846;44.788;20.486;2022-11-20T11:32:19;204.90;2252.80
54946;DHT22;40846;44.788;20.486;2022-11-20T11:35:24;180.10;2252.80
54946;DHT22;40846;44.788;20.486;2022-11-20T11:37:51;180.00;2252.80
54946;DHT22;40846;44.788;20.486;2022-11-20T11:40:21;180.10;2252.80
54946;DHT22;40846;44.788;20.486;2022-11-20T11:42:57;204.80;2252.80
54946;DHT22;40846;44.788;20.486;2022-11-20T11:45:23;204.90;2252.80
54946;DHT22;40846;44.788;20.486;2022-11-20T11:47:51;205.00;2252.80
54946;DHT22;40846;44.788;20.486;2022-11-20T11:50:25;205.00;2252.80
54946;DHT22;40846;44.788;20.486;2022-11-20T11:53:16;204.90;2252.80
54946;DHT22;40846;44.788;20.486;2022-11-20T11:56:03;204.80;2252.80
54946;DHT22;40846;44.788;20.486;2022-11-20T11:58:42;180.00;2252.80
54946;DHT22;40846;44.788;20.486;2022-11-20T12:01:17;204.80;2252.80
54946;DHT22;40846;44.788;20.486;2022-11-20T12:04:02;180.10;2252.80
54946;DHT22;40846;44.788;20.486;2022-11-20T12:06:30;204.80;2252.80
54946;DHT22;40846;44.788;20.486;2022-11-20T12:09:08;204.80;2252.80
54946;DHT22;40846;44.788;20.486;2022-11-20T12:14:29;179.90;2252.80
54946;DHT22;40846;44.788;20.486;2022-11-20T12:16:55;179.80;2252.80
54946;DHT22;40846;44.788;20.486;2022-11-20T12:19:23;179.80;2252.80
54946;DHT22;40846;44.788;20.486;2022-11-20T12:30:20;179.50;2252.80
54946;DHT22;40846;44.788;20.486;2022-11-20T12:38:42;179.40;2252.80
54946;DHT22;40846;44.788;20.486;2022-11-20T12:50:15;179.70;2252.80
54946;DHT22;40846;44.788;20.486;2022-11-20T12:53:05;179.80;2252.80
54946;DHT22;40846;44.788;20.486;2022-11-20T13:04:16;180.00;2252.80
54946;DHT22;40846;44.788;20.486;2022-11-20T13:06:44;179.80;2252.80
54946;DHT22;40846;44.788;20.486;2022-11-20T13:09:14;179.70;2252.80
54946;DHT22;40846;44.788;20.486;2022-11-20T13:12:08;179.80;2252.80
54946;DHT22;40846;44.788;20.486;2022-11-20T13:17:31;179.60;2252.80
54946;DHT22;40846;44.788;20.486;2022-11-20T13:19:59;179.70;2252.80
54946;DHT22;40846;44.788;20.486;2022-11-20T13:22:42;179.80;2252.80
54946;DHT22;40846;44.788;20.486;2022-11-20T13:25:09;179.60;2252.80
54946;DHT22;40846;44.788;20.486;2022-11-20T13:27:34;179.40;2252.80
54946;DHT22;40846;44.788;20.486;2022-11-20T13:30:13;179.50;2252.80
54946;DHT22;40846;44.788;20.486;2022-11-20T13:35:32;179.70;2252.80
54946;DHT22;40846;44.788;20.486;2022-11-20T13:40:30;179.70;2252.80
54946;DHT22;40846;44.788;20.486;2022-11-20T13:43:10;179.60;2252.80
54946;DHT22;40846;44.788;20.486;2022-11-20T13:45:40;179.50;2252.80
54946;DHT22;40846;44.788;20.486;2022-11-20T13:48:20;179.60;2252.80
54946;DHT22;40846;44.788;20.486;2022-11-20T13:56:34;179.70;2252.80
54946;DHT22;40846;44.788;20.486;2022-11-20T14:01:57;179.30;2252.80
54946;DHT22;40846;44.788;20.486;2022-11-20T14:04:30;179.40;2252.80
54946;DHT22;40846;44.788;20.486;2022-11-20T14:06:57;179.40;2252.80
54946;DHT22;40846;44.788;20.486;2022-11-20T14:09:27;179.40;2252.80
54946;DHT22;40846;44.788;20.486;2022-11-20T14:11:53;179.40;2252.80
54946;DHT22;40846;44.788;20.486;2022-11-20T14:14:22;179.40;2252.80
54946;DHT22;40846;44.788;20.486;2022-11-20T14:16:49;179.40;2252.80
54946;DHT22;40846;44.788;20.486;2022-11-20T14:19:28;179.40;2252.80
54946;DHT22;40846;44.788;20.486;2022-11-20T14:22:22;179.50;2252.80
54946;DHT22;40846;44.788;20.486;2022-11-20T14:25:06;179.70;2252.80
54946;DHT22;40846;44.788;20.486;2022-11-20T14:27:40;179.60;2252.80
54946;DHT22;40846;44.788;20.486;2022-11-20T14:30:13;179.70;2252.80
54946;DHT22;40846;44.788;20.486;2022-11-20T14:32:41;179.60;2252.80
54946;DHT22;40846;44.788;20.486;2022-11-20T14:35:09;179.70;2252.80
54946;DHT22;40846;44.788;20.486;2022-11-20T14:37:39;179.80;2252.80
54946;DHT22;40846;44.788;20.486;2022-11-20T14:42:48;179.70;2252.80
54946;DHT22;40846;44.788;20.486;2022-11-20T14:45:15;180.00;2252.80
54946;DHT22;40846;44.788;20.486;2022-11-20T14:47:42;179.80;2252.80
54946;DHT22;40846;44.788;20.486;2022-11-20T14:50:26;179.60;2252.80
54946;DHT22;40846;44.788;20.486;2022-11-20T14:52:57;179.50;2252.80
54946;DHT22;40846;44.788;20.486;2022-11-20T14:58:06;179.60;2252.80
54946;DHT22;40846;44.788;20.486;2022-11-20T15:00:33;179.70;2252.80
54946;DHT22;40846;44.788;20.486;2022-11-20T15:03:00;179.60;2252.80
54946;DHT22;40846;44.788;20.486;2022-11-20T15:05:45;179.60;2252.80
54946;DHT22;40846;44.788;20.486;2022-11-20T15:08:12;179.60;2252.80
54946;DHT22;40846;44.788;20.486;2022-11-20T15:10:39;179.50;2252.80
54946;DHT22;40846;44.788;20.486;2022-11-20T15:13:29;179.60;2252.80
54946;DHT22;40846;44.788;20.486;2022-11-20T15:15:56;179.50;2252.80
54946;DHT22;40846;44.788;20.486;2022-11-20T15:18:32;179.60;2252.80
54946;DHT22;40846;44.788;20.486;2022-11-20T15:31:00;179.90;2252.80
54946;DHT22;40846;44.788;20.486;2022-11-20T15:33:26;179.40;2252.80
54946;DHT22;40846;44.788;20.486;2022-11-20T15:38:18;179.20;2252.80
54946;DHT22;40846;44.788;20.486;2022-11-20T15:40:43;154.50;2252.80
54946;DHT22;40846;44.788;20.486;2022-11-20T15:43:09;154.50;2252.80
54946;DHT22;40846;44.788;20.486;2022-11-20T15:45:51;179.30;2252.80
54946;DHT22;40846;44.788;20.486;2022-11-20T15:48:27;179.40;2252.80
54946;DHT22;40846;44.788;20.486;2022-11-20T15:53:35;179.70;2252.80
54946;DHT22;40846;44.788;20.486;2022-11-20T15:56:01;179.80;2252.80
54946;DHT22;40846;44.788;20.486;2022-11-20T15:58:27;179.50;2252.80
54946;DHT22;40846;44.788;20.486;2022-11-20T16:00:53;179.70;2252.80
54946;DHT22;40846;44.788;20.486;2022-11-20T16:03:31;179.70;2252.80
54946;DHT22;40846;44.788;20.486;2022-11-20T16:05:57;179.60;2252.80
54946;DHT22;40846;44.788;20.486;2022-11-20T16:08:22;179.80;2252.80
54946;DHT22;40846;44.788;20.486;2022-11-20T16:10:48;179.70;2252.80
54946;DHT22;40846;44.788;20.486;2022-11-20T16:13:16;179.80;2252.80
54946;DHT22;40846;44.788;20.486;2022-11-20T16:18:32;204.80;2252.80
54946;DHT22;40846;44.788;20.486;2022-11-20T16:20:58;180.00;2252.80
54946;DHT22;40846;44.788;20.486;2022-11-20T16:23:23;180.10;2252.80
54946;DHT22;40846;44.788;20.486;2022-11-20T16:25:50;179.90;2252.80
54946;DHT22;40846;44.788;20.486;2022-11-20T16:28:16;179.90;2252.80
54946;DHT22;40846;44.788;20.486;2022-11-20T16:30:42;180.00;2252.80
54946;DHT22;40846;44.788;20.486;2022-11-20T16:33:13;180.00;2252.80
54946;DHT22;40846;44.788;20.486;2022-11-20T16:35:39;180.10;2252.80
54946;DHT22;40846;44.788;20.486;2022-11-20T16:38:05;204.80;2252.80
54946;DHT22;40846;44.788;20.486;2022-11-20T16:40:31;204.90;2252.80
54946;DHT22;40846;44.788;20.486;2022-11-20T16:42:57;204.80;2252.80
54946;DHT22;40846;44.788;20.486;2022-11-20T16:52:41;205.20;2252.80
54946;DHT22;40846;44.788;20.486;2022-11-20T17:00:00;205.40;2252.80
54946;DHT22;40846;44.788;20.486;2022-11-20T17:02:27;205.20;2252.80
54946;DHT22;40846;44.788;20.486;2022-11-20T17:04:52;205.10;2252.80
54946;DHT22;40846;44.788;20.486;2022-11-20T17:22:00;205.30;2252.80
54946;DHT22;40846;44.788;20.486;2022-11-20T17:24:26;204.80;2252.80
54946;DHT22;40846;44.788;20.486;2022-11-20T17:26:51;204.80;2252.80
54946;DHT22;40846;44.788;20.486;2022-11-20T17:29:18;180.00;2252.80
54946;DHT22;40846;44.788;20.486;2022-11-20T17:31:48;180.00;2252.80
54946;DHT22;40846;44.788;20.486;2022-11-20T17:34:14;204.90;2252.80
54946;DHT22;40846;44.788;20.486;2022-11-20T17:36:41;204.90;2252.80
54946;DHT22;40846;44.788;20.486;2022-11-20T17:39:10;180.10;2252.80
54946;DHT22;40846;44.788;20.486;2022-11-20T17:41:36;204.80;2252.80
54946;DHT22;40846;44.788;20.486;2022-11-20T17:44:02;204.90;2252.80
54946;DHT22;40846;44.788;20.486;2022-11-20T17:46:30;204.80;2252.80
54946;DHT22;40846;44.788;20.486;2022-11-20T17:49:09;204.90;2252.80
54946;DHT22;40846;44.788;20.486;2022-11-20T17:51:34;204.90;2252.80
54946;DHT22;40846;44.788;20.486;2022-11-20T17:54:02;204.90;2252.80
54946;DHT22;40846;44.788;20.486;2022-11-20T17:56:33;204.90;2252.80
54946;DHT22;40846;44.788;20.486;2022-11-20T17:59:18;180.10;2252.80
54946;DHT22;40846;44.788;20.486;2022-11-20T18:01:44;180.10;2252.80
54946;DHT22;40846;44.788;20.486;2022-11-20T18:04:13;204.80;2252.80
54946;DHT22;40846;44.788;20.486;2022-11-20T18:06:39;204.90;2252.80
54946;DHT22;40846;44.788;20.486;2022-11-20T18:09:06;204.80;2252.80
54946;DHT22;40846;44.788;20.486;2022-11-20T18:11:37;204.80;2252.80
54946;DHT22;40846;44.788;20.486;2022-11-20T18:14:05;180.10;2252.80
54946;DHT22;40846;44.788;20.486;2022-11-20T18:16:52;204.80;2252.80
54946;DHT22;40846;44.788;20.486;2022-11-20T18:19:21;204.80;2252.80
54946;DHT22;40846;44.788;20.486;2022-11-20T18:21:47;204.90;2252.80
54946;DHT22;40846;44.788;20.486;2022-11-20T18:24:13;204.90;2252.80
54946;DHT22;40846;44.788;20.486;2022-11-20T18:26:39;205.00;2252.80
54946;DHT22;40846;44.788;20.486;2022-11-20T18:29:05;205.00;2252.80
54946;DHT22;40846;44.788;20.486;2022-11-20T18:31:31;204.90;2252.80
54946;DHT22;40846;44.788;20.486;2022-11-20T18:46:55;205.60;2252.80
54946;DHT22;40846;44.788;20.486;2022-11-20T18:49:21;205.30;2252.80
54946;DHT22;40846;44.788;20.486;2022-11-20T18:51:56;205.30;2252.80
54946;DHT22;40846;44.788;20.486;2022-11-20T18:54:25;205.20;2252.80
54946;DHT22;40846;44.788;20.486;2022-11-20T18:56:51;205.30;2252.80
54946;DHT22;40846;44.788;20.486;2022-11-20T18:59:18;205.30;2252.80
54946;DHT22;40846;44.788;20.486;2022-11-20T19:01:48;205.30;2252.80
54946;DHT22;40846;44.788;20.486;2022-11-20T19:04:34;205.20;2252.80
54946;DHT22;40846;44.788;20.486;2022-11-20T19:07:06;205.10;2252.80
54946;DHT22;40846;44.788;20.486;2022-11-20T19:09:39;205.30;2252.80
54946;DHT22;40846;44.788;20.486;2022-11-20T19:12:12;205.40;2252.80
54946;DHT22;40846;44.788;20.486;2022-11-20T19:15:16;205.30;2252.80
54946;DHT22;40846;44.788;20.486;2022-11-20T19:18:07;205.30;2252.80
54946;DHT22;40846;44.788;20.486;2022-11-20T19:20:51;205.40;2252.80
54946;DHT22;40846;44.788;20.486;2022-11-20T19:23:16;205.10;2252.80
54946;DHT22;40846;44.788;20.486;2022-11-20T19:25:46;205.20;2252.80
54946;DHT22;40846;44.788;20.486;2022-11-20T19:28:12;205.30;2252.80
54946;DHT22;40846;44.788;20.486;2022-11-20T19:30:37;205.00;2252.80
54946;DHT22;40846;44.788;20.486;2022-11-20T19:33:05;205.20;2252.80
54946;DHT22;40846;44.788;20.486;2022-11-20T19:35:32;205.20;2252.80
54946;DHT22;40846;44.788;20.486;2022-11-20T19:37:57;205.10;2252.80
54946;DHT22;40846;44.788;20.486;2022-11-20T19:40:23;205.10;2252.80
54946;DHT22;40846;44.788;20.486;2022-11-20T19:42:49;205.10;2252.80
54946;DHT22;40846;44.788;20.486;2022-11-20T19:45:15;204.90;2252.80
54946;DHT22;40846;44.788;20.486;2022-11-20T19:47:40;205.00;2252.80
54946;DHT22;40846;44.788;20.486;2022-11-20T19:50:07;204.90;2252.80
54946;DHT22;40846;44.788;20.486;2022-11-20T19:52:35;204.80;2252.80
54946;DHT22;40846;44.788;20.486;2022-11-20T19:55:01;180.10;2252.80
54946;DHT22;40846;44.788;20.486;2022-11-20T19:57:26;180.00;2252.80
54946;DHT22;40846;44.788;20.486;2022-11-20T19:59:52;180.00;2252.80
54946;DHT22;40846;44.788;20.486;2022-11-20T20:02:18;180.00;2252.80
54946;DHT22;40846;44.788;20.486;2022-11-20T20:04:43;180.10;2252.80
54946;DHT22;40846;44.788;20.486;2022-11-20T20:07:11;204.90;2252.80
54946;DHT22;40846;44.788;20.486;2022-11-20T20:09:37;204.90;2252.80
54946;DHT22;40846;44.788;20.486;2022-11-20T20:12:03;204.80;2252.80
54946;DHT22;40846;44.788;20.486;2022-11-20T20:14:29;204.90;2252.80
54946;DHT22;40846;44.788;20.486;2022-11-20T20:16:56;204.90;2252.80
54946;DHT22;40846;44.788;20.486;2022-11-20T20:19:22;204.80;2252.80
54946;DHT22;40846;44.788;20.486;2022-11-20T20:21:48;204.80;2252.80
54946;DHT22;40846;44.788;20.486;2022-11-20T20:24:14;180.10;2252.80
54946;DHT22;40846;44.788;20.486;2022-11-20T20:26:40;180.10;2252.80
54946;DHT22;40846;44.788;20.486;2022-11-20T20:29:06;204.80;2252.80
54946;DHT22;40846;44.788;20.486;2022-11-20T20:31:32;180.10;2252.80
54946;DHT22;40846;44.788;20.486;2022-11-20T20:33:58;204.80;2252.80
54946;DHT22;40846;44.788;20.486;2022-11-20T20:36:25;180.00;2252.80
54946;DHT22;40846;44.788;20.486;2022-11-20T20:38:55;179.90;2252.80
54946;DHT22;40846;44.788;20.486;2022-11-20T20:41:22;179.90;2252.80
54946;DHT22;40846;44.788;20.486;2022-11-20T20:43:49;179.90;2252.80
54946;DHT22;40846;44.788;20.486;2022-11-20T20:46:33;179.80;2252.80
54946;DHT22;40846;44.788;20.486;2022-11-20T20:48:59;179.70;2252.80
54946;DHT22;40846;44.788;20.486;2022-11-20T20:51:25;179.90;2252.80
54946;DHT22;40846;44.788;20.486;2022-11-20T20:53:51;180.00;2252.80
54946;DHT22;40846;44.788;20.486;2022-11-20T20:56:17;179.90;2252.80
54946;DHT22;40846;44.788;20.486;2022-11-20T20:58:43;180.00;2252.80
54946;DHT22;40846;44.788;20.486;2022-11-20T21:01:13;180.10;2252.80
54946;DHT22;40846;44.788;20.486;2022-11-20T21:03:40;180.10;2252.80
54946;DHT22;40846;44.788;20.486;2022-11-20T21:06:09;204.80;2252.80
54946;DHT22;40846;44.788;20.486;2022-11-20T21:08:36;204.80;2252.80
54946;DHT22;40846;44.788;20.486;2022-11-20T21:11:09;204.90;2252.80
54946;DHT22;40846;44.788;20.486;2022-11-20T21:13:37;204.80;2252.80
54946;DHT22;40846;44.788;20.486;2022-11-20T21:16:03;204.90;2252.80
54946;DHT22;40846;44.788;20.486;2022-11-20T21:18:31;204.90;2252.80
54946;DHT22;40846;44.788;20.486;2022-11-20T21:20:57;205.00;2252.80
54946;DHT22;40846;44.788;20.486;2022-11-20T21:23:45;205.00;2252.80
54946;DHT22;40846;44.788;20.486;2022-11-20T21:26:12;205.00;2252.80
54946;DHT22;40846;44.788;20.486;2022-11-20T21:28:39;204.90;2252.80
54946;DHT22;40846;44.788;20.486;2022-11-20T21:31:06;204.90;2252.80
54946;DHT22;40846;44.788;20.486;2022-11-20T21:33:52;204.80;2252.80
54946;DHT22;40846;44.788;20.486;2022-11-20T21:36:19;204.80;2252.80
54946;DHT22;40846;44.788;20.486;2022-11-20T21:38:47;180.10;2252.80
54946;DHT22;40846;44.788;20.486;2022-11-20T21:41:14;204.80;2252.80
54946;DHT22;40846;44.788;20.486;2022-11-20T21:43:40;180.10;2252.80
54946;DHT22;40846;44.788;20.486;2022-11-20T21:46:15;180.00;2252.80
54946;DHT22;40846;44.788;20.486;2022-11-20T21:48:41;179.80;2252.80
54946;DHT22;40846;44.788;20.486;2022-11-20T21:51:10;179.80;2252.80
54946;DHT22;40846;44.788;20.486;2022-11-20T21:53:36;179.90;2252.80
54946;DHT22;40846;44.788;20.486;2022-11-20T21:56:02;179.90;2252.80
54946;DHT22;40846;44.788;20.486;2022-11-20T21:58:29;179.80;2252.80
54946;DHT22;40846;44.788;20.486;2022-11-20T22:00:55;179.90;2252.80
54946;DHT22;40846;44.788;20.486;2022-11-20T22:03:21;179.90;2252.80
54946;DHT22;40846;44.788;20.486;2022-11-20T22:05:57;180.00;2252.80
54946;DHT22;40846;44.788;20.486;2022-11-20T22:08:24;179.90;2252.80
54946;DHT22;40846;44.788;20.486;2022-11-20T22:40:32;180.00;2252.80
54946;DHT22;40846;44.788;20.486;2022-11-20T22:42:57;179.80;2252.80
54946;DHT22;40846;44.788;20.486;2022-11-20T22:45:23;179.60;2252.80
54946;DHT22;40846;44.788;20.486;2022-11-20T22:47:49;179.40;2252.80
54946;DHT22;40846;44.788;20.486;2022-11-20T22:50:14;179.40;2252.80
54946;DHT22;40846;44.788;20.486;2022-11-20T22:52:40;179.40;2252.80
54946;DHT22;40846;44.788;20.486;2022-11-20T22:55:06;179.40;2252.80
54946;DHT22;40846;44.788;20.486;2022-11-20T22:57:32;179.40;2252.80
54946;DHT22;40846;44.788;20.486;2022-11-20T22:59:58;179.40;2252.80
54946;DHT22;40846;44.788;20.486;2022-11-20T23:02:23;179.40;2252.80
54946;DHT22;40846;44.788;20.486;2022-11-20T23:04:49;179.30;2252.80
54946;DHT22;40846;44.788;20.486;2022-11-20T23:07:15;179.30;2252.80
54946;DHT22;40846;44.788;20.486;2022-11-20T23:09:40;179.20;2252.80
54946;DHT22;40846;44.788;20.486;2022-11-20T23:12:06;179.30;2252.80
54946;DHT22;40846;44.788;20.486;2022-11-20T23:14:32;179.20;2252.80
54946;DHT22;40846;44.788;20.486;2022-11-20T23:16:58;179.20;2252.80
54946;DHT22;40846;44.788;20.486;2022-11-20T23:19:24;179.30;2252.80
54946;DHT22;40846;44.788;20.486;2022-11-20T23:21:49;179.20;2252.80
54946;DHT22;40846;44.788;20.486;2022-11-20T23:24:15;154.50;2252.80
54946;DHT22;40846;44.788;20.486;2022-11-20T23:26:41;154.50;2252.80
54946;DHT22;40846;44.788;20.486;2022-11-20T23:29:07;154.50;2252.80
54946;DHT22;40846;44.788;20.486;2022-11-20T23:31:34;179.20;2252.80
54946;DHT22;40846;44.788;20.486;2022-11-20T23:34:00;154.50;2252.80
54946;DHT22;40846;44.788;20.486;2022-11-20T23:36:26;154.40;2252.80
54946;DHT22;40846;44.788;20.486;2022-11-20T23:38:52;154.30;2252.80
54946;DHT22;40846;44.788;20.486;2022-11-20T23:41:18;154.30;2252.80
54946;DHT22;40846;44.788;20.486;2022-11-20T23:43:50;154.20;2252.80
54946;DHT22;40846;44.788;20.486;2022-11-20T23:46:16;154.20;2252.80
54946;DHT22;40846;44.788;20.486;2022-11-20T23:48:42;154.10;2252.80
54946;DHT22;40846;44.788;20.486;2022-11-20T23:51:09;154.00;2252.80
54946;DHT22;40846;44.788;20.486;2022-11-20T23:53:34;154.00;2252.80
54946;DHT22;40846;44.788;20.486;2022-11-20T23:56:02;154.20;2252.80
54946;DHT22;40846;44.788;20.486;2022-11-20T23:58:35;154.20;2252.80
